Погода Вахромеевона 2 недели

Тверская область, Россия

27 мая-09 июня
  • 27мая
    Сегодня
    +10°
    +24°
    Ясно и безоблачно
    ВремяПогодаТемператураВлажностьДавлениеВетер, м/сВероятность осадков
    00:00Ясно и безоблачно+11°C57 %758 мм3.2 м/с2 %
    03:00Ясно и безоблачно+8°C69 %759 мм2.7 м/с2 %
    06:00Ясно и безоблачно+11°C66 %759 мм2.6 м/с2 %
    09:00Ясно и безоблачно+18°C53 %760 мм2.6 м/с2 %
    12:00Ясно и безоблачно+22°C39 %759 мм2.4 м/с2 %
    15:00Ясно и безоблачно+23°C36 %758 мм2.1 м/с2 %
    18:00Ясно и безоблачно+24°C37 %757 мм1.7 м/с2 %
    21:00Ясно и безоблачно+17°C56 %757 мм2.1 м/с2 %
  • 28мая
    Вторник
    +11°
    +27°
    Ясно и безоблачно
    ВремяПогодаТемператураВлажностьДавлениеВетер, м/сВероятность осадков
    00:00Ясно и безоблачно+12°C62 %757 мм2.3 м/с2 %
    03:00Ясно и безоблачно+10°C67 %757 мм2.2 м/с2 %
    06:00Ясно и безоблачно+14°C71 %757 мм2.7 м/с2 %
    09:00Ясно и безоблачно+21°C51 %756 мм2.5 м/с2 %
    12:00Ясно и безоблачно+25°C36 %756 мм2.1 м/с2 %
    15:00Ясно и безоблачно+26°C34 %755 мм1.8 м/с2 %
    18:00Практически безоблачно+26°C34 %753 мм2.5 м/с2 %
    21:00Ясно и безоблачно+19°C53 %753 мм2.2 м/с2 %
  • 29мая
    Среда
    +12°
    +28°
    Облачно с прояснениями
    ВремяПогодаТемператураВлажностьДавлениеВетер, м/сВероятность осадков
    00:00Ясно и безоблачно+15°C55 %752 мм2.8 м/с2 %
    03:00Практически безоблачно+12°C73 %752 мм2.0 м/с2 %
    06:00Ясно и безоблачно+15°C74 %752 мм1.3 м/с2 %
    09:00Ясно и безоблачно+23°C47 %752 мм1.2 м/с2 %
    12:00Ясно и безоблачно+27°C33 %751 мм1.3 м/с2 %
    15:00Облачно с прояснениями+28°C28 %750 мм1.2 м/с6 %
    18:00Небольшая облачность+27°C31 %749 мм1.5 м/с9 %
    21:00Ясно и безоблачно+20°C52 %749 мм1.5 м/с2 %
  • 30мая
    Четверг
    +13°
    +29°
    Небольшая облачность
    ВремяПогодаТемператураВлажностьДавлениеВетер, м/сВероятность осадков
    00:00Ясно и безоблачно+15°C79 %749 мм2.2 м/с2 %
    03:00Ясно и безоблачно+13°C89 %749 мм2.0 м/с2 %
    06:00Практически безоблачно+16°C85 %749 мм2.0 м/с2 %
    09:00Практически безоблачно+24°C55 %749 мм1.6 м/с2 %
    12:00Практически безоблачно+28°C32 %749 мм0.6 м/с11 %
    15:00Небольшая облачность+28°C30 %748 мм1.2 м/с19 %
    18:00Облачно с прояснениями+28°C31 %748 мм1.8 м/с22 %
    21:00Небольшая облачность+21°C53 %749 мм1.7 м/с6 %
  • 31мая
    Пятница
    +13°
    +29°
    Облачно с прояснениями
    ВремяПогодаТемператураВлажностьДавлениеВетер, м/сВероятность осадков
    00:00Ясно и безоблачно+16°C75 %748 мм1.7 м/с2 %
    03:00Ясно и безоблачно+14°C84 %749 мм2.2 м/с2 %
    06:00Практически безоблачно+17°C79 %749 мм1.4 м/с2 %
    09:00Ясно и безоблачно+24°C52 %750 мм1.7 м/с2 %
    12:00Практически безоблачно+27°C39 %750 мм1.8 м/с10 %
    15:00Облачно с прояснениями+29°C35 %750 мм0.4 м/с25 %
    18:00Практически безоблачно+27°C44 %750 мм3.0 м/с22 %
    21:00Ясно и безоблачно+22°C58 %750 мм2.8 м/с7 %
Мы используем cookies
Соглашаюсь